createdAt,value
2023-05-11T00:00:38.335Z,34.41
2023-05-11T00:03:05.158Z,34.56
2023-05-11T00:05:31.774Z,34.71
2023-05-11T00:07:58.391Z,34.90
2023-05-11T00:10:24.924Z,34.56
2023-05-11T00:12:51.505Z,34.79
2023-05-11T00:15:18.040Z,34.87
2023-05-11T00:17:45.347Z,34.51
2023-05-11T00:20:11.989Z,34.90
2023-05-11T00:22:39.332Z,34.78
2023-05-11T00:25:06.772Z,34.61
2023-05-11T00:27:33.548Z,34.83
2023-05-11T00:30:00.384Z,34.59
2023-05-11T00:32:26.990Z,34.68
2023-05-11T00:34:53.486Z,34.51
2023-05-11T00:37:20.142Z,34.71
2023-05-11T00:39:46.686Z,34.64
2023-05-11T00:42:13.204Z,34.61
2023-05-11T00:44:39.803Z,34.61
2023-05-11T00:47:07.220Z,34.82
2023-05-11T00:49:33.904Z,34.79
2023-05-11T00:52:03.089Z,34.71
2023-05-11T00:54:30.888Z,34.55
2023-05-11T00:56:57.544Z,34.92
2023-05-11T00:59:24.213Z,34.88
2023-05-11T01:01:51.178Z,34.79
2023-05-11T01:04:17.849Z,34.92
2023-05-11T01:07:06.449Z,34.61
2023-05-11T01:09:44.832Z,34.88
2023-05-11T01:12:44.093Z,34.52
2023-05-11T01:15:14.372Z,34.67
2023-05-11T01:18:26.533Z,34.88
2023-05-11T01:20:58.461Z,34.94
2023-05-11T01:24:03.927Z,34.76
2023-05-11T01:26:47.125Z,34.59
2023-05-11T01:29:49.243Z,34.67
2023-05-11T01:32:20.404Z,34.94
2023-05-11T01:34:48.855Z,34.78
2023-05-11T01:37:22.938Z,34.74
2023-05-11T01:39:54.359Z,34.59
2023-05-11T01:42:26.281Z,34.82
2023-05-11T01:44:55.317Z,34.92
2023-05-11T01:47:25.149Z,34.71
2023-05-11T01:49:54.192Z,34.94
2023-05-11T01:52:23.540Z,34.59
2023-05-11T01:54:52.849Z,34.72
2023-05-11T01:57:21.302Z,34.66
2023-05-11T01:59:50.215Z,34.82
2023-05-11T02:02:18.692Z,34.77
2023-05-11T02:04:46.565Z,34.75
2023-05-11T02:07:14.907Z,34.96
2023-05-11T02:09:42.818Z,34.90
2023-05-11T02:12:11.386Z,34.91
2023-05-11T02:14:40.369Z,34.65
2023-05-11T02:17:08.783Z,34.79
2023-05-11T02:19:37.635Z,34.60
2023-05-11T02:22:06.008Z,34.99
2023-05-11T02:24:33.850Z,34.98
2023-05-11T02:27:02.123Z,34.90
2023-05-11T02:29:29.125Z,34.61
2023-05-11T02:32:09.732Z,34.64
2023-05-11T02:34:43.333Z,35.03
2023-05-11T02:37:18.490Z,34.65
2023-05-11T02:39:48.360Z,34.89
2023-05-11T02:42:20.966Z,34.90
2023-05-11T02:45:04.944Z,34.88
2023-05-11T02:47:39.438Z,34.85
2023-05-11T02:50:09.028Z,34.80
2023-05-11T02:52:43.172Z,34.78
2023-05-11T02:55:11.904Z,34.58
2023-05-11T02:57:39.004Z,34.88
2023-05-11T03:00:10.349Z,34.85
2023-05-11T03:02:37.117Z,34.81
2023-05-11T03:05:05.171Z,34.64
2023-05-11T03:07:33.312Z,34.92
2023-05-11T03:10:00.843Z,34.95
2023-05-11T03:12:33.926Z,34.90
2023-05-11T03:15:04.944Z,34.69
2023-05-11T03:17:35.222Z,34.92
2023-05-11T03:20:04.117Z,34.66
2023-05-11T03:22:31.724Z,34.71
2023-05-11T03:24:59.143Z,34.67
2023-05-11T03:27:27.585Z,35.01
2023-05-11T03:29:56.871Z,35.00
2023-05-11T03:32:24.296Z,35.04
2023-05-11T03:34:52.182Z,34.68
2023-05-11T03:37:19.527Z,34.58
2023-05-11T03:39:48.296Z,34.79
2023-05-11T03:42:15.584Z,34.80
2023-05-11T03:44:46.176Z,35.03
2023-05-11T03:47:14.698Z,34.69
2023-05-11T03:49:42.420Z,34.75
2023-05-11T03:52:10.684Z,34.66
2023-05-11T03:54:37.792Z,34.97
2023-05-11T03:57:04.643Z,34.60
2023-05-11T03:59:31.714Z,34.93
2023-05-11T04:02:01.207Z,34.95
2023-05-11T04:04:30.625Z,34.86
2023-05-11T04:06:59.356Z,34.60
2023-05-11T04:09:26.253Z,34.66
2023-05-11T04:11:53.115Z,34.60
2023-05-11T04:14:20.676Z,34.84
2023-05-11T04:16:47.974Z,34.58
2023-05-11T04:19:15.497Z,34.90
2023-05-11T04:21:42.189Z,34.59
2023-05-11T04:24:09.014Z,34.43
2023-05-11T04:26:35.573Z,34.38
2023-05-11T04:29:03.737Z,34.71
2023-05-11T04:31:30.593Z,34.71
2023-05-11T04:33:57.749Z,34.33
2023-05-11T04:36:24.958Z,34.57
2023-05-11T04:38:53.568Z,34.57
2023-05-11T04:41:20.772Z,34.30
2023-05-11T04:43:48.177Z,34.57
2023-05-11T04:46:15.342Z,34.21
2023-05-11T04:48:42.355Z,34.48
2023-05-11T04:51:09.969Z,34.59
2023-05-11T04:53:42.417Z,34.45
2023-05-11T04:56:09.451Z,34.49
2023-05-11T04:58:36.020Z,34.49
2023-05-11T05:01:05.956Z,34.04
2023-05-11T05:03:32.625Z,34.56
2023-05-11T05:05:59.127Z,34.50
2023-05-11T05:08:25.866Z,34.44
2023-05-11T05:10:52.467Z,34.50
2023-05-11T05:13:19.162Z,34.44
2023-05-11T05:15:45.993Z,34.34
2023-05-11T05:18:12.756Z,34.33
2023-05-11T05:20:39.695Z,34.26
2023-05-11T05:23:06.451Z,34.19
2023-05-11T05:25:33.990Z,34.32
2023-05-11T05:28:00.813Z,34.09
2023-05-11T05:30:27.870Z,34.31
2023-05-11T05:32:55.179Z,33.92
2023-05-11T05:35:22.296Z,34.18
2023-05-11T05:37:49.348Z,34.14
2023-05-11T05:40:16.857Z,34.09
2023-05-11T05:42:50.283Z,34.21
2023-05-11T05:45:20.800Z,34.29
2023-05-11T05:47:49.051Z,34.58
2023-05-11T05:50:16.290Z,34.40
2023-05-11T05:52:43.654Z,34.65
2023-05-11T05:55:11.643Z,34.78
2023-05-11T05:57:39.437Z,34.99
2023-05-11T06:00:09.618Z,34.90
2023-05-11T06:02:42.376Z,34.94
2023-05-11T06:05:17.695Z,35.30
2023-05-11T06:07:51.525Z,34.97
2023-05-11T06:10:25.101Z,34.75
2023-05-11T06:12:51.669Z,34.69
2023-05-11T06:15:18.398Z,34.55
2023-05-11T06:17:50.003Z,34.72
2023-05-11T06:20:17.479Z,34.76
2023-05-11T06:22:44.108Z,34.86
2023-05-11T06:25:11.624Z,34.53
2023-05-11T06:27:39.601Z,34.65
2023-05-11T06:30:07.465Z,34.81
2023-05-11T06:32:36.359Z,34.30
2023-05-11T06:35:03.572Z,33.33
2023-05-11T06:37:30.683Z,32.52
2023-05-11T06:39:58.960Z,32.51
2023-05-11T06:42:26.886Z,32.47
2023-05-11T06:45:04.389Z,32.35
2023-05-11T06:47:30.969Z,32.28
2023-05-11T06:49:58.198Z,32.43
2023-05-11T06:52:24.831Z,32.46
2023-05-11T06:54:51.958Z,32.37
2023-05-11T06:57:19.262Z,32.46
2023-05-11T07:02:09.640Z,32.75
2023-05-11T07:04:37.178Z,32.88
2023-05-11T07:07:04.037Z,32.64
2023-05-11T07:09:30.638Z,32.98
2023-05-11T07:11:57.773Z,32.93
2023-05-11T07:14:24.400Z,33.00
2023-05-11T07:16:53.098Z,33.00
2023-05-11T07:19:19.709Z,33.18
2023-05-11T07:21:46.348Z,33.18
2023-05-11T07:24:13.156Z,33.41
2023-05-11T07:26:39.669Z,33.72
2023-05-11T07:29:06.415Z,33.88
2023-05-11T07:31:35.489Z,34.16
2023-05-11T07:34:02.795Z,34.01
2023-05-11T07:36:29.932Z,33.94
2023-05-11T07:38:57.910Z,33.81
2023-05-11T07:41:26.815Z,33.81
2023-05-11T07:43:56.793Z,33.28
2023-05-11T07:46:23.404Z,33.31
2023-05-11T07:48:57.397Z,33.42
2023-05-11T07:51:30.942Z,33.10
2023-05-11T07:53:57.541Z,33.58
2023-05-11T07:56:24.323Z,33.59
2023-05-11T07:58:50.953Z,33.54
2023-05-11T08:01:17.586Z,33.33
2023-05-11T08:03:44.399Z,34.07
2023-05-11T08:06:12.187Z,34.56
2023-05-11T08:08:39.285Z,34.90
2023-05-11T08:11:06.090Z,35.12
2023-05-11T08:13:32.914Z,35.49
2023-05-11T08:18:18.307Z,36.24
2023-05-11T08:20:45.043Z,36.39
2023-05-11T08:23:17.067Z,36.57
2023-05-11T08:25:51.980Z,36.47
2023-05-11T08:28:22.233Z,36.78
2023-05-11T08:30:59.434Z,36.84
2023-05-11T08:33:37.437Z,37.35
2023-05-11T08:36:06.961Z,37.19
2023-05-11T08:38:35.169Z,37.25
2023-05-11T08:41:02.660Z,37.06
2023-05-11T08:43:29.502Z,37.22
2023-05-11T08:46:01.101Z,36.69
2023-05-11T08:48:29.123Z,36.59
2023-05-11T08:50:56.265Z,36.91
2023-05-11T08:53:23.286Z,37.03
2023-05-11T08:55:51.542Z,36.81
2023-05-11T08:58:22.104Z,36.38
2023-05-11T09:00:49.661Z,36.40
2023-05-11T09:03:17.765Z,36.47
2023-05-11T09:05:46.963Z,36.79
2023-05-11T09:08:15.923Z,36.90
2023-05-11T09:10:45.714Z,37.17
2023-05-11T09:13:12.727Z,37.70
2023-05-11T09:15:39.371Z,37.90
2023-05-11T09:18:09.000Z,38.12
2023-05-11T09:20:35.723Z,38.26
2023-05-11T09:23:05.564Z,38.39
2023-05-11T09:25:42.729Z,38.53
2023-05-11T09:31:37.583Z,38.94
2023-05-11T09:34:21.452Z,39.09
2023-05-11T09:36:54.047Z,39.45
2023-05-11T09:39:53.202Z,39.36
2023-05-11T09:42:30.173Z,39.50
2023-05-11T09:45:06.144Z,39.60
2023-05-11T09:47:52.920Z,39.30
2023-05-11T09:50:26.427Z,39.54
2023-05-11T09:52:53.412Z,39.37
2023-05-11T09:55:20.423Z,39.07
2023-05-11T09:57:55.039Z,39.62
2023-05-11T10:00:22.053Z,39.59
2023-05-11T10:03:00.974Z,39.50
2023-05-11T10:05:27.892Z,39.55
2023-05-11T10:08:05.556Z,39.68
2023-05-11T10:10:33.978Z,39.85
2023-05-11T10:13:05.520Z,39.92
2023-05-11T10:15:35.235Z,39.90
2023-05-11T10:18:02.290Z,39.86
2023-05-11T10:20:29.095Z,39.88
2023-05-11T10:22:56.119Z,39.98
2023-05-11T10:25:23.634Z,39.57
2023-05-11T10:27:51.638Z,39.51
2023-05-11T10:30:18.928Z,39.45
2023-05-11T10:32:47.210Z,39.11
2023-05-11T10:35:14.395Z,38.95
2023-05-11T10:37:45.699Z,38.80
2023-05-11T10:40:13.285Z,38.72
2023-05-11T10:42:43.516Z,38.66
2023-05-11T10:45:22.045Z,38.63
2023-05-11T10:47:56.315Z,38.79
2023-05-11T10:50:43.126Z,38.91
2023-05-11T10:53:19.112Z,38.97
2023-05-11T10:56:12.446Z,39.38
2023-05-11T10:59:16.398Z,39.58
2023-05-11T11:01:43.685Z,39.92
2023-05-11T11:04:12.638Z,39.78
2023-05-11T11:06:42.423Z,39.93
2023-05-11T11:09:14.501Z,40.07
2023-05-11T11:11:43.168Z,40.43
2023-05-11T11:14:10.450Z,40.44
2023-05-11T11:16:37.656Z,40.58
2023-05-11T11:19:32.029Z,40.57
2023-05-11T11:22:00.288Z,40.48
2023-05-11T11:24:53.691Z,40.47
2023-05-11T11:27:40.189Z,40.83
2023-05-11T11:30:26.897Z,40.68
2023-05-11T11:32:55.668Z,40.59
2023-05-11T11:35:55.682Z,40.62
2023-05-11T11:38:22.983Z,40.68
2023-05-11T11:40:53.743Z,40.71
2023-05-11T11:43:45.791Z,40.69
2023-05-11T11:46:25.248Z,40.76
2023-05-11T11:48:54.378Z,40.78
2023-05-11T11:51:34.285Z,40.89
2023-05-11T11:54:01.182Z,40.76
2023-05-11T11:56:30.844Z,40.77
2023-05-11T11:59:02.809Z,40.82
2023-05-11T12:01:30.682Z,40.78
2023-05-11T12:04:20.417Z,40.65
2023-05-11T12:06:58.865Z,40.57
2023-05-11T12:09:26.759Z,40.91
2023-05-11T12:14:22.666Z,40.91
2023-05-11T12:17:03.437Z,41.05
2023-05-11T12:19:30.913Z,41.18
2023-05-11T12:21:57.468Z,41.09
2023-05-11T12:24:24.144Z,40.91
2023-05-11T12:26:50.777Z,41.00
2023-05-11T12:29:18.449Z,41.10
2023-05-11T12:31:46.779Z,40.91
2023-05-11T12:34:16.281Z,40.81
2023-05-11T12:36:45.147Z,40.96
2023-05-11T12:39:22.375Z,40.98
2023-05-11T12:41:50.412Z,41.04
2023-05-11T12:44:18.372Z,41.09
2023-05-11T12:46:47.082Z,41.27
2023-05-11T12:52:00.025Z,41.21
2023-05-11T12:54:32.653Z,41.22
2023-05-11T12:57:01.095Z,41.13
2023-05-11T12:59:40.788Z,41.20
2023-05-11T13:02:17.395Z,41.33
2023-05-11T13:04:45.490Z,41.32
2023-05-11T13:07:13.798Z,41.29
2023-05-11T13:09:41.169Z,41.25
2023-05-11T13:12:14.523Z,41.14
2023-05-11T13:14:41.847Z,41.11
2023-05-11T13:17:08.505Z,40.98
2023-05-11T13:19:35.324Z,41.00
2023-05-11T13:22:01.952Z,40.82
2023-05-11T13:24:28.527Z,40.79
2023-05-11T13:26:57.304Z,40.75
2023-05-11T13:29:24.226Z,40.76
2023-05-11T13:31:52.762Z,40.71
2023-05-11T13:34:20.128Z,40.69
2023-05-11T13:36:47.216Z,40.47
2023-05-11T13:39:14.245Z,40.41
2023-05-11T13:41:40.769Z,40.42
2023-05-11T13:44:07.831Z,40.48
2023-05-11T13:46:35.209Z,40.51
2023-05-11T13:49:01.800Z,40.61
2023-05-11T13:51:28.374Z,40.49
2023-05-11T13:53:55.169Z,40.44
2023-05-11T13:56:22.026Z,40.39
2023-05-11T13:58:49.004Z,40.48
2023-05-11T14:01:16.249Z,40.51
2023-05-11T14:03:45.546Z,40.54
2023-05-11T14:06:12.569Z,40.80
2023-05-11T14:08:39.149Z,40.56
2023-05-11T14:11:05.624Z,40.45
2023-05-11T14:13:32.246Z,40.62
2023-05-11T14:15:59.237Z,40.61
2023-05-11T14:18:26.280Z,40.56
2023-05-11T14:20:54.364Z,40.53
2023-05-11T14:23:21.411Z,40.52
2023-05-11T14:25:47.952Z,40.49
2023-05-11T14:28:14.711Z,40.52
2023-05-11T14:30:41.336Z,40.63
2023-05-11T14:33:08.698Z,40.64
2023-05-11T14:35:37.047Z,40.22
2023-05-11T14:38:05.087Z,39.95
2023-05-11T14:40:32.803Z,38.30
2023-05-11T14:42:59.495Z,36.47
2023-05-11T14:45:26.100Z,35.11
2023-05-11T14:47:53.035Z,33.82
2023-05-11T14:50:19.704Z,32.86
2023-05-11T14:52:47.008Z,31.85
2023-05-11T14:55:14.057Z,30.96
2023-05-11T14:57:40.936Z,30.48
2023-05-11T15:00:08.459Z,29.75
2023-05-11T15:02:35.146Z,29.67
2023-05-11T15:05:02.035Z,29.16
2023-05-11T15:07:28.629Z,29.00
2023-05-11T15:09:55.947Z,28.72
2023-05-11T15:12:23.416Z,28.72
2023-05-11T15:14:50.547Z,28.45
2023-05-11T15:17:17.135Z,28.35
2023-05-11T15:19:43.679Z,28.03
2023-05-11T15:22:10.418Z,28.03
2023-05-11T15:24:37.280Z,28.03
2023-05-11T15:27:03.968Z,27.91
2023-05-11T15:29:30.470Z,27.79
2023-05-11T15:31:57.050Z,27.51
2023-05-11T15:34:23.596Z,27.46
2023-05-11T15:36:50.487Z,27.09
2023-05-11T15:39:19.562Z,27.13
2023-05-11T15:41:46.585Z,26.90
2023-05-11T15:44:16.351Z,26.81
2023-05-11T15:46:46.210Z,26.88
2023-05-11T15:49:12.897Z,26.98
2023-05-11T15:51:39.571Z,27.05
2023-05-11T15:54:06.396Z,27.57
2023-05-11T15:56:33.000Z,28.16
2023-05-11T15:58:59.592Z,28.56
2023-05-11T16:01:26.182Z,29.01
2023-05-11T16:03:54.878Z,29.35
2023-05-11T16:06:21.384Z,29.81
2023-05-11T16:08:48.307Z,30.17
2023-05-11T16:11:14.831Z,30.33
2023-05-11T16:13:41.405Z,30.41
2023-05-11T16:16:11.394Z,30.67
2023-05-11T16:18:39.077Z,30.77
2023-05-11T16:21:06.572Z,30.97
2023-05-11T16:23:33.240Z,31.02
2023-05-11T16:26:00.680Z,31.12
2023-05-11T16:28:27.210Z,31.10
2023-05-11T16:30:57.851Z,31.14
2023-05-11T16:33:26.149Z,31.12
2023-05-11T16:35:55.534Z,31.17
2023-05-11T16:38:22.562Z,31.12
2023-05-11T16:40:49.917Z,31.27
2023-05-11T16:43:17.137Z,31.21
2023-05-11T16:45:44.113Z,31.27
2023-05-11T16:48:10.970Z,31.33
2023-05-11T16:50:37.565Z,31.25
2023-05-11T16:53:04.879Z,31.27
2023-05-11T16:55:31.393Z,31.57
2023-05-11T16:57:57.991Z,31.51
2023-05-11T17:00:25.190Z,31.66
2023-05-11T17:02:51.965Z,31.68
2023-05-11T17:05:19.055Z,31.67
2023-05-11T17:07:46.743Z,31.98
2023-05-11T17:10:13.645Z,32.23
2023-05-11T17:12:40.864Z,32.24
2023-05-11T17:15:09.774Z,32.32
2023-05-11T17:17:37.769Z,32.52
2023-05-11T17:20:07.661Z,32.56
2023-05-11T17:22:38.271Z,32.39
2023-05-11T17:25:06.272Z,32.44
2023-05-11T17:27:34.568Z,32.60
2023-05-11T17:30:01.113Z,32.55
2023-05-11T17:32:27.780Z,32.48
2023-05-11T17:34:54.536Z,32.50
2023-05-11T17:37:31.321Z,32.52
2023-05-11T17:40:02.460Z,32.39
2023-05-11T17:42:29.097Z,32.35
2023-05-11T17:44:55.951Z,32.35
2023-05-11T17:49:43.843Z,32.70
2023-05-11T17:52:10.676Z,32.99
2023-05-11T17:54:37.202Z,32.91
2023-05-11T17:57:07.026Z,33.05
2023-05-11T17:59:34.080Z,33.09
2023-05-11T18:02:01.261Z,32.91
2023-05-11T18:04:28.234Z,33.25
2023-05-11T18:06:54.736Z,33.19
2023-05-11T18:09:21.289Z,33.15
2023-05-11T18:11:47.928Z,33.41
2023-05-11T18:14:14.938Z,33.44
2023-05-11T18:16:41.458Z,33.60
2023-05-11T18:19:08.185Z,34.40
2023-05-11T18:21:35.056Z,34.49
2023-05-11T18:24:01.732Z,35.01
2023-05-11T18:26:28.286Z,34.58
2023-05-11T18:28:55.163Z,34.80
2023-05-11T18:31:22.169Z,34.69
2023-05-11T18:33:49.246Z,34.75
2023-05-11T18:36:16.130Z,34.80
2023-05-11T18:38:46.647Z,34.66
2023-05-11T18:41:13.251Z,34.75
2023-05-11T18:43:45.942Z,34.89
2023-05-11T18:46:12.523Z,34.82
2023-05-11T18:48:39.127Z,34.82
2023-05-11T18:51:06.676Z,35.00
2023-05-11T18:53:33.487Z,35.00
2023-05-11T18:56:00.567Z,34.84
2023-05-11T18:58:27.140Z,35.01
2023-05-11T19:00:53.932Z,34.81
2023-05-11T19:03:22.057Z,34.76
2023-05-11T19:05:49.305Z,34.82
2023-05-11T19:08:16.388Z,34.83
2023-05-11T19:10:47.871Z,34.69
2023-05-11T19:13:14.738Z,34.86
2023-05-11T19:15:41.354Z,34.67
2023-05-11T19:18:08.108Z,34.74
2023-05-11T19:20:35.147Z,34.71
2023-05-11T19:23:02.296Z,34.59
2023-05-11T19:25:29.092Z,34.73
2023-05-11T19:27:57.222Z,34.81
2023-05-11T19:30:24.667Z,34.69
2023-05-11T19:32:51.372Z,34.81
2023-05-11T19:35:18.948Z,34.70
2023-05-11T19:37:48.845Z,34.65
2023-05-11T19:42:46.137Z,34.58
2023-05-11T19:45:14.907Z,34.71
2023-05-11T19:47:41.680Z,34.70
2023-05-11T19:50:08.927Z,34.70
2023-05-11T19:52:36.655Z,34.74
2023-05-11T19:55:06.722Z,34.67
2023-05-11T19:57:37.170Z,34.72
2023-05-11T20:00:07.630Z,34.75
2023-05-11T20:02:35.775Z,34.71
2023-05-11T20:05:03.843Z,34.84
2023-05-11T20:07:30.467Z,34.62
2023-05-11T20:09:57.967Z,34.70
2023-05-11T20:12:24.481Z,34.51
2023-05-11T20:14:52.589Z,34.75
2023-05-11T20:17:19.121Z,34.77
2023-05-11T20:19:45.674Z,34.90
2023-05-11T20:22:12.230Z,35.17
2023-05-11T20:24:38.830Z,35.36
2023-05-11T20:27:09.422Z,35.31
2023-05-11T20:29:36.465Z,35.32
2023-05-11T20:32:03.361Z,35.28
2023-05-11T20:34:30.129Z,35.15
2023-05-11T20:36:56.776Z,35.17
2023-05-11T20:39:23.367Z,35.05
2023-05-11T20:41:52.740Z,35.03
2023-05-11T20:44:19.430Z,34.96
2023-05-11T20:46:47.210Z,34.92
2023-05-11T20:49:20.140Z,34.92
2023-05-11T20:51:54.348Z,34.92
2023-05-11T20:54:22.502Z,35.25
2023-05-11T20:56:49.917Z,34.92
2023-05-11T21:01:46.791Z,35.14
2023-05-11T21:04:13.392Z,35.14
2023-05-11T21:06:40.359Z,35.01
2023-05-11T21:09:06.909Z,35.02
2023-05-11T21:11:33.524Z,35.19
2023-05-11T21:14:00.158Z,35.07
2023-05-11T21:16:26.753Z,35.03
2023-05-11T21:18:54.107Z,34.88
2023-05-11T21:21:20.762Z,34.93
2023-05-11T21:23:47.340Z,34.83
2023-05-11T21:26:17.188Z,35.21
2023-05-11T21:28:43.701Z,35.36
2023-05-11T21:31:10.356Z,35.32
2023-05-11T21:33:37.447Z,35.40
2023-05-11T21:36:05.808Z,35.41
2023-05-11T21:38:32.548Z,35.46
2023-05-11T21:40:59.085Z,35.63
2023-05-11T21:43:25.683Z,35.40
2023-05-11T21:45:52.440Z,35.30
2023-05-11T21:48:19.474Z,35.35
2023-05-11T21:50:52.250Z,35.59
2023-05-11T21:53:18.969Z,35.14
2023-05-11T21:55:45.500Z,35.30
2023-05-11T21:58:12.473Z,35.34
2023-05-11T22:00:39.393Z,35.41
2023-05-11T22:03:06.558Z,35.30
2023-05-11T22:05:33.181Z,35.22
2023-05-11T22:08:13.343Z,34.91
2023-05-11T22:10:42.906Z,35.17
2023-05-11T22:13:09.526Z,35.30
2023-05-11T22:15:36.240Z,35.15
2023-05-11T22:18:06.017Z,34.84
2023-05-11T22:20:33.156Z,34.82
2023-05-11T22:22:59.796Z,35.01
2023-05-11T22:25:28.427Z,34.97
2023-05-11T22:27:54.981Z,34.99
2023-05-11T22:30:23.743Z,35.24
2023-05-11T22:32:50.525Z,35.08
2023-05-11T22:35:17.182Z,35.50
2023-05-11T22:37:43.801Z,35.13
2023-05-11T22:40:10.969Z,35.27
2023-05-11T22:42:37.949Z,35.23
2023-05-11T22:45:05.063Z,35.27
2023-05-11T22:47:31.792Z,35.42
2023-05-11T22:49:58.921Z,35.29
2023-05-11T22:52:25.419Z,35.18
2023-05-11T22:54:57.786Z,35.20
2023-05-11T22:57:26.180Z,35.23
2023-05-11T22:59:52.657Z,35.29
2023-05-11T23:02:19.376Z,35.32
2023-05-11T23:04:53.528Z,35.22
2023-05-11T23:07:20.098Z,34.96
2023-05-11T23:09:47.009Z,35.13
2023-05-11T23:12:13.584Z,35.26
2023-05-11T23:14:40.193Z,35.14
2023-05-11T23:17:06.883Z,35.13
2023-05-11T23:19:33.682Z,35.00
2023-05-11T23:22:00.598Z,35.10
2023-05-11T23:24:28.784Z,34.90
2023-05-11T23:26:55.444Z,34.97
2023-05-11T23:29:22.067Z,34.79
2023-05-11T23:31:48.947Z,35.03
2023-05-11T23:34:15.749Z,34.90
2023-05-11T23:36:42.941Z,34.81
2023-05-11T23:39:09.617Z,34.80
2023-05-11T23:41:36.348Z,34.99
2023-05-11T23:44:03.301Z,34.57
2023-05-11T23:46:29.992Z,34.79
2023-05-11T23:48:56.494Z,34.79
2023-05-11T23:51:23.206Z,34.54
2023-05-11T23:53:49.769Z,34.68
2023-05-11T23:56:16.385Z,34.72
2023-05-11T23:58:45.553Z,34.45
